createdAt,value
2019-02-17T00:04:23.162Z,23.57
2019-02-17T00:06:33.960Z,27.67
2019-02-17T00:08:44.791Z,34.57
2019-02-17T00:10:55.572Z,26.53
2019-02-17T00:13:26.298Z,27.80
2019-02-17T00:15:37.124Z,24.93
2019-02-17T00:17:47.952Z,25.43
2019-02-17T00:19:58.879Z,24.27
2019-02-17T00:22:09.692Z,22.37
2019-02-17T00:24:20.493Z,22.23
2019-02-17T00:27:12.935Z,24.67
2019-02-17T00:29:23.749Z,20.90
2019-02-17T00:31:34.548Z,21.83
2019-02-17T00:33:45.359Z,23.77
2019-02-17T00:35:56.150Z,21.30
2019-02-17T00:38:06.979Z,27.10
2019-02-17T00:40:17.769Z,22.07
2019-02-17T00:42:28.556Z,24.97
2019-02-17T00:44:39.406Z,22.97
2019-02-17T00:46:50.205Z,26.37
2019-02-17T00:49:01.014Z,22.87
2019-02-17T00:51:11.795Z,20.40
2019-02-17T00:53:22.659Z,23.97
2019-02-17T00:55:33.457Z,22.77
2019-02-17T00:57:44.265Z,23.87
2019-02-17T00:59:55.068Z,26.17
2019-02-17T01:02:05.857Z,26.57
2019-02-17T01:04:16.692Z,24.97
2019-02-17T01:06:27.491Z,27.83
2019-02-17T01:08:38.348Z,27.97
2019-02-17T01:10:49.141Z,23.43
2019-02-17T01:12:59.967Z,27.07
2019-02-17T01:15:11.013Z,23.27
2019-02-17T01:17:21.804Z,28.50
2019-02-17T01:19:32.635Z,31.50
2019-02-17T01:21:43.420Z,26.00
2019-02-17T01:23:54.337Z,24.43
2019-02-17T01:26:05.138Z,22.23
2019-02-17T01:28:15.955Z,23.30
2019-02-17T01:30:26.768Z,22.77
2019-02-17T01:32:37.576Z,21.97
2019-02-17T01:34:48.400Z,25.20
2019-02-17T01:36:59.200Z,21.80
2019-02-17T01:39:10.006Z,23.80
2019-02-17T01:41:20.798Z,24.57
2019-02-17T01:43:31.597Z,25.83
2019-02-17T01:45:42.414Z,22.03
2019-02-17T01:47:53.214Z,22.40
2019-02-17T01:50:45.681Z,21.10
2019-02-17T01:52:56.485Z,21.13
2019-02-17T01:55:07.443Z,21.77
2019-02-17T01:57:18.219Z,19.30
2019-02-17T01:59:30.827Z,20.90
2019-02-17T02:01:41.734Z,20.33
2019-02-17T02:03:52.532Z,19.17
2019-02-17T02:06:03.352Z,19.43
2019-02-17T02:08:14.254Z,19.53
2019-02-17T02:10:25.063Z,18.23
2019-02-17T02:12:35.874Z,21.40
2019-02-17T02:14:46.758Z,19.53
2019-02-17T02:16:57.556Z,18.30
2019-02-17T02:19:08.343Z,16.90
2019-02-17T02:21:19.173Z,18.93
2019-02-17T02:23:29.966Z,18.57
2019-02-17T02:25:40.804Z,19.30
2019-02-17T02:27:51.609Z,18.23
2019-02-17T02:30:44.071Z,18.77
2019-02-17T02:32:54.864Z,22.30
2019-02-17T02:35:05.756Z,18.93
2019-02-17T02:37:16.570Z,21.27
2019-02-17T02:39:27.379Z,22.90
2019-02-17T02:41:38.184Z,20.23
2019-02-17T02:43:48.990Z,22.90
2019-02-17T02:45:59.811Z,19.73
2019-02-17T02:48:10.602Z,22.53
2019-02-17T02:50:21.399Z,20.37
2019-02-17T02:52:32.217Z,20.87
2019-02-17T02:54:43.022Z,19.27
2019-02-17T02:56:53.844Z,22.93
2019-02-17T02:59:04.625Z,23.53
2019-02-17T03:01:15.446Z,21.67
2019-02-17T03:03:26.240Z,21.50
2019-02-17T03:08:09.535Z,18.87
2019-02-17T03:10:20.322Z,19.67
2019-02-17T03:15:01.803Z,18.03
2019-02-17T03:17:12.652Z,19.03
2019-02-17T03:19:23.534Z,17.47
2019-02-17T03:21:34.349Z,19.83
2019-02-17T03:23:45.205Z,19.67
2019-02-17T03:25:55.995Z,19.53
2019-02-17T03:28:06.802Z,17.33
2019-02-17T03:30:17.591Z,17.87
2019-02-17T03:32:28.401Z,21.67
2019-02-17T03:34:39.202Z,21.77
2019-02-17T03:36:50.005Z,18.67
2019-02-17T03:39:00.816Z,18.33
2019-02-17T03:41:11.623Z,20.27
2019-02-17T03:43:22.442Z,21.97
2019-02-17T03:45:33.250Z,18.30
2019-02-17T03:47:44.064Z,18.73
2019-02-17T03:49:54.891Z,18.43
2019-02-17T03:52:05.684Z,21.80
2019-02-17T03:54:16.501Z,16.53
2019-02-17T03:56:27.294Z,19.20
2019-02-17T03:58:38.096Z,18.20
2019-02-17T04:00:48.897Z,20.30
2019-02-17T04:02:59.689Z,16.23
2019-02-17T04:05:10.533Z,16.20
2019-02-17T04:07:21.341Z,16.67
2019-02-17T04:09:32.155Z,15.97
2019-02-17T04:11:42.972Z,20.67
2019-02-17T04:13:53.782Z,17.33
2019-02-17T04:16:04.608Z,17.40
2019-02-17T04:18:15.438Z,19.50
2019-02-17T04:20:26.234Z,15.53
2019-02-17T04:22:37.034Z,17.87
2019-02-17T04:24:47.855Z,17.10
2019-02-17T04:26:58.647Z,19.67
2019-02-17T04:29:10.308Z,17.73
2019-02-17T04:31:22.249Z,20.23
2019-02-17T04:33:33.043Z,17.40
2019-02-17T04:35:43.865Z,16.47
2019-02-17T04:37:54.654Z,18.47
2019-02-17T04:40:05.562Z,17.63
2019-02-17T04:42:16.369Z,15.60
2019-02-17T04:44:27.159Z,17.17
2019-02-17T04:46:37.966Z,17.23
2019-02-17T04:48:48.772Z,15.20
2019-02-17T04:50:59.682Z,15.17
2019-02-17T04:53:10.474Z,19.83
2019-02-17T04:55:21.283Z,18.10
2019-02-17T04:57:32.072Z,16.97
2019-02-17T04:59:42.904Z,15.10
2019-02-17T05:01:53.720Z,16.37
2019-02-17T05:04:04.511Z,17.87
2019-02-17T05:06:15.334Z,15.33
2019-02-17T05:08:26.121Z,16.67
2019-02-17T05:10:37.048Z,17.13
2019-02-17T05:12:47.847Z,18.87
2019-02-17T05:14:58.644Z,17.13
2019-02-17T05:17:09.465Z,18.33
2019-02-17T05:19:20.261Z,19.43
2019-02-17T05:21:31.167Z,20.43
2019-02-17T05:23:41.961Z,21.27
2019-02-17T05:25:52.770Z,19.80
2019-02-17T05:28:03.585Z,17.53
2019-02-17T05:30:14.387Z,17.93
2019-02-17T05:32:25.233Z,20.97
2019-02-17T05:34:36.021Z,15.60
2019-02-17T05:36:46.837Z,16.33
2019-02-17T05:38:57.644Z,18.10
2019-02-17T05:41:08.438Z,17.40
2019-02-17T05:43:19.268Z,15.30
2019-02-17T05:45:30.065Z,19.47
2019-02-17T05:47:40.873Z,20.27
2019-02-17T05:49:51.674Z,17.03
2019-02-17T05:52:02.483Z,17.00
2019-02-17T05:54:13.271Z,18.43
2019-02-17T05:56:24.076Z,24.77
2019-02-17T05:58:34.908Z,20.53
2019-02-17T06:00:45.892Z,17.50
2019-02-17T06:02:56.715Z,21.13
2019-02-17T06:05:07.537Z,17.63
2019-02-17T06:07:18.334Z,17.10
2019-02-17T06:09:29.174Z,20.77
2019-02-17T06:11:39.972Z,18.77
2019-02-17T06:13:50.786Z,20.13
2019-02-17T06:16:01.623Z,19.53
2019-02-17T06:18:12.465Z,17.30
2019-02-17T06:20:23.264Z,17.37
2019-02-17T06:22:34.056Z,20.20
2019-02-17T06:24:44.870Z,16.57
2019-02-17T06:26:55.668Z,20.40
2019-02-17T06:29:06.503Z,21.00
2019-02-17T06:31:17.301Z,17.50
2019-02-17T06:33:28.112Z,16.57
2019-02-17T06:35:39.047Z,18.27
2019-02-17T06:37:49.845Z,14.17
2019-02-17T06:40:00.671Z,17.07
2019-02-17T06:42:11.463Z,14.77
2019-02-17T06:44:22.287Z,19.83
2019-02-17T06:49:05.474Z,16.67
2019-02-17T06:51:16.293Z,16.03
2019-02-17T06:53:27.100Z,15.47
2019-02-17T06:57:56.840Z,15.60
2019-02-17T07:00:49.308Z,13.77
2019-02-17T07:03:00.113Z,15.87
2019-02-17T07:07:29.324Z,15.90
2019-02-17T07:09:40.128Z,14.50
2019-02-17T07:11:50.930Z,17.03
2019-02-17T07:14:01.743Z,14.77
2019-02-17T07:16:12.610Z,13.87
2019-02-17T07:18:23.412Z,12.57
2019-02-17T07:20:34.224Z,12.40
2019-02-17T07:22:45.037Z,18.70
2019-02-17T07:24:55.864Z,18.77
2019-02-17T07:27:06.685Z,14.63
2019-02-17T07:29:17.499Z,13.90
2019-02-17T07:31:34.794Z,16.10
2019-02-17T07:33:41.128Z,14.23
2019-02-17T07:35:51.945Z,14.50
2019-02-17T07:38:02.753Z,14.47
2019-02-17T07:40:13.569Z,15.27
2019-02-17T07:42:24.372Z,16.40
2019-02-17T07:44:35.242Z,15.47
2019-02-17T07:46:45.987Z,16.67
2019-02-17T07:48:56.795Z,16.93
2019-02-17T07:51:07.611Z,15.00
2019-02-17T07:53:18.431Z,15.77
2019-02-17T07:55:29.250Z,12.87
2019-02-17T07:57:40.068Z,16.07
2019-02-17T07:59:50.886Z,14.03
2019-02-17T08:02:01.705Z,12.37
2019-02-17T08:04:12.507Z,13.03
2019-02-17T08:06:23.324Z,12.13
2019-02-17T08:08:34.127Z,15.17
2019-02-17T08:10:44.937Z,15.67
2019-02-17T08:12:55.755Z,14.70
2019-02-17T08:15:28.343Z,15.83
2019-02-17T08:17:39.209Z,16.10
2019-02-17T08:19:50.108Z,17.13
2019-02-17T08:22:00.938Z,16.70
2019-02-17T08:27:04.666Z,18.87
2019-02-17T08:29:16.757Z,17.03
2019-02-17T08:31:27.673Z,17.27
2019-02-17T08:33:38.513Z,16.57
2019-02-17T08:35:49.328Z,15.07
2019-02-17T08:38:00.186Z,15.90
2019-02-17T08:40:10.997Z,17.10
2019-02-17T08:42:21.813Z,17.97
2019-02-17T08:44:32.637Z,15.40
2019-02-17T08:46:45.076Z,16.37
2019-02-17T08:48:56.232Z,15.77
2019-02-17T08:51:07.046Z,20.23
2019-02-17T08:53:17.849Z,17.37
2019-02-17T08:55:28.663Z,15.73
2019-02-17T08:57:39.506Z,13.63
2019-02-17T08:59:50.337Z,13.97
2019-02-17T09:02:05.977Z,13.93
2019-02-17T09:04:14.048Z,13.43
2019-02-17T09:06:24.854Z,15.77
2019-02-17T09:08:35.687Z,14.33
2019-02-17T09:10:46.636Z,16.23
2019-02-17T09:12:57.455Z,15.03
2019-02-17T09:15:49.923Z,14.70
2019-02-17T09:18:00.750Z,15.07
2019-02-17T09:20:53.230Z,14.60
2019-02-17T09:23:04.065Z,13.27
2019-02-17T09:25:14.878Z,14.93
2019-02-17T09:27:25.698Z,17.00
2019-02-17T09:29:36.534Z,15.37
2019-02-17T09:31:47.349Z,15.97
2019-02-17T09:33:58.169Z,16.70
2019-02-17T09:36:08.984Z,15.53
2019-02-17T09:38:19.789Z,14.83
2019-02-17T09:40:30.603Z,15.43
2019-02-17T09:42:41.424Z,16.67
2019-02-17T09:44:52.240Z,16.00
2019-02-17T09:47:03.069Z,17.10
2019-02-17T09:49:13.876Z,18.00
2019-02-17T09:51:24.790Z,15.93
2019-02-17T09:53:35.597Z,12.93
2019-02-17T09:55:46.447Z,12.57
2019-02-17T09:57:57.263Z,12.20
2019-02-17T10:00:27.961Z,13.73
2019-02-17T10:02:38.775Z,15.77
2019-02-17T10:04:49.599Z,12.57
2019-02-17T10:07:00.431Z,12.03
2019-02-17T10:09:11.229Z,10.63
2019-02-17T10:11:22.051Z,12.10
2019-02-17T10:13:32.867Z,11.20
2019-02-17T10:15:43.703Z,12.30
2019-02-17T10:17:54.507Z,10.87
2019-02-17T10:20:47.020Z,13.40
2019-02-17T10:22:57.829Z,13.47
2019-02-17T10:25:08.819Z,14.43
2019-02-17T10:27:19.638Z,14.27
2019-02-17T10:29:30.438Z,15.03
2019-02-17T10:31:41.270Z,14.10
2019-02-17T10:33:52.102Z,13.97
2019-02-17T10:36:02.902Z,14.83
2019-02-17T10:38:13.745Z,13.03
2019-02-17T10:40:24.594Z,11.73
2019-02-17T10:42:35.428Z,6.87
2019-02-17T10:44:46.231Z,8.30
2019-02-17T10:46:57.044Z,7.87
2019-02-17T10:49:07.954Z,9.07
2019-02-17T10:51:18.849Z,8.03
2019-02-17T10:53:36.760Z,8.87
2019-02-17T10:55:47.567Z,7.57
2019-02-17T10:57:58.382Z,7.30
2019-02-17T11:00:29.482Z,7.97
2019-02-17T11:02:47.224Z,8.80
2019-02-17T11:04:53.119Z,7.27
2019-02-17T11:07:03.926Z,8.00
2019-02-17T11:09:34.627Z,9.37
2019-02-17T11:11:45.638Z,10.03
2019-02-17T11:13:56.508Z,8.47
2019-02-17T11:16:07.342Z,8.47
2019-02-17T11:18:18.185Z,8.77
2019-02-17T11:20:28.991Z,9.07
2019-02-17T11:22:39.790Z,7.23
2019-02-17T11:24:50.615Z,8.57
2019-02-17T11:27:01.431Z,7.50
2019-02-17T11:29:12.341Z,6.93
2019-02-17T11:31:23.304Z,7.47
2019-02-17T11:33:34.236Z,8.90
2019-02-17T11:35:45.041Z,8.47
2019-02-17T11:37:55.833Z,7.70
2019-02-17T11:40:48.294Z,8.00
2019-02-17T11:42:59.130Z,8.80
2019-02-17T11:45:29.849Z,9.30
2019-02-17T11:47:40.756Z,8.90
2019-02-17T11:49:51.706Z,10.97
2019-02-17T11:52:02.710Z,9.27
2019-02-17T11:54:13.540Z,9.47
2019-02-17T11:56:24.365Z,10.00
2019-02-17T11:58:35.158Z,10.97
2019-02-17T12:00:45.998Z,8.67
2019-02-17T12:02:56.821Z,10.00
2019-02-17T12:05:49.308Z,9.27
2019-02-17T12:08:00.128Z,9.00
2019-02-17T12:10:11.161Z,10.47
2019-02-17T12:12:21.953Z,8.03
2019-02-17T12:14:32.745Z,11.27
2019-02-17T12:16:43.597Z,9.57
2019-02-17T12:18:54.418Z,9.33
2019-02-17T12:21:25.116Z,10.50
2019-02-17T12:28:46.928Z,9.83
2019-02-17T12:30:57.754Z,9.63
2019-02-17T12:33:18.303Z,11.27
2019-02-17T12:35:21.288Z,11.70
2019-02-17T12:37:32.124Z,12.50
2019-02-17T12:39:42.903Z,9.03
2019-02-17T12:41:53.741Z,12.57
2019-02-17T12:44:04.557Z,10.40
2019-02-17T12:46:15.397Z,11.70
2019-02-17T12:48:26.200Z,10.37
2019-02-17T12:50:37.007Z,8.47
2019-02-17T12:52:48.010Z,11.50
2019-02-17T12:55:00.519Z,10.43
2019-02-17T12:57:11.344Z,11.60
2019-02-17T12:59:22.151Z,12.83
2019-02-17T13:01:33.039Z,9.30
2019-02-17T13:03:43.861Z,11.80
2019-02-17T13:05:54.658Z,9.73
2019-02-17T13:08:05.491Z,12.63
2019-02-17T13:10:16.310Z,11.53
2019-02-17T13:12:27.138Z,11.27
2019-02-17T13:14:37.955Z,12.53
2019-02-17T13:16:48.789Z,11.93
2019-02-17T13:18:59.621Z,10.63
2019-02-17T13:21:10.468Z,12.03
2019-02-17T13:23:21.304Z,10.57
2019-02-17T13:25:32.099Z,10.97
2019-02-17T13:27:42.928Z,11.50
2019-02-17T13:30:35.403Z,10.07
2019-02-17T13:32:46.209Z,9.20
2019-02-17T13:34:57.012Z,8.87
2019-02-17T13:37:07.844Z,13.03
2019-02-17T13:39:18.656Z,8.83
2019-02-17T13:41:29.479Z,11.53
2019-02-17T13:44:01.007Z,10.60
2019-02-17T13:46:11.826Z,8.60
2019-02-17T13:48:22.633Z,9.63
2019-02-17T13:50:33.436Z,10.33
2019-02-17T13:52:44.233Z,10.17
2019-02-17T13:54:55.061Z,11.87
2019-02-17T13:57:05.984Z,9.53
2019-02-17T13:59:16.826Z,8.80
2019-02-17T14:01:27.637Z,9.70
2019-02-17T14:03:48.239Z,10.60
2019-02-17T14:05:51.191Z,9.20
2019-02-17T14:08:01.987Z,9.90
2019-02-17T14:10:13.153Z,11.17
2019-02-17T14:12:23.942Z,9.77
2019-02-17T14:14:34.788Z,10.77
2019-02-17T14:16:45.634Z,9.80
2019-02-17T14:18:56.430Z,10.00
2019-02-17T14:21:07.266Z,8.33
2019-02-17T14:23:18.085Z,8.80
2019-02-17T14:25:28.970Z,8.07
2019-02-17T14:27:39.775Z,9.57
2019-02-17T14:29:50.614Z,8.90
2019-02-17T14:32:01.425Z,9.23
2019-02-17T14:34:12.258Z,11.20
2019-02-17T14:36:23.077Z,8.50
2019-02-17T14:38:33.868Z,8.47
2019-02-17T14:40:44.711Z,9.73
2019-02-17T14:42:55.586Z,6.90
2019-02-17T14:45:48.007Z,7.80
2019-02-17T14:47:58.818Z,8.80
2019-02-17T14:50:51.281Z,8.47
2019-02-17T14:53:02.110Z,8.00
2019-02-17T14:55:12.913Z,9.63
2019-02-17T14:57:23.746Z,9.10
2019-02-17T14:59:34.559Z,5.80
2019-02-17T15:01:46.868Z,8.00
2019-02-17T15:03:58.103Z,5.63
2019-02-17T15:06:08.907Z,6.53
2019-02-17T15:08:19.733Z,6.70
2019-02-17T15:10:30.538Z,5.23
2019-02-17T15:12:41.377Z,5.13
2019-02-17T15:14:52.174Z,4.80
2019-02-17T15:19:20.587Z,4.10
2019-02-17T15:21:31.393Z,3.80
2019-02-17T15:23:42.201Z,3.73
2019-02-17T15:25:53.002Z,4.77
2019-02-17T15:28:03.835Z,3.17
2019-02-17T15:30:56.278Z,4.87
2019-02-17T15:33:07.123Z,5.07
2019-02-17T15:35:17.962Z,3.73
2019-02-17T15:37:28.786Z,5.33
2019-02-17T15:39:39.624Z,4.47
2019-02-17T15:41:50.417Z,3.13
2019-02-17T15:44:01.270Z,4.23
2019-02-17T15:46:13.294Z,3.23
2019-02-17T15:48:24.870Z,4.43
2019-02-17T15:50:35.671Z,5.60
2019-02-17T15:52:46.496Z,5.00
2019-02-17T15:54:57.321Z,4.73
2019-02-17T15:57:08.140Z,4.67
2019-02-17T15:59:19.029Z,4.83
2019-02-17T16:01:29.829Z,6.33
2019-02-17T16:03:40.696Z,5.87
2019-02-17T16:05:51.517Z,5.93
2019-02-17T16:08:02.323Z,5.03
2019-02-17T16:10:34.969Z,5.77
2019-02-17T16:12:45.893Z,8.60
2019-02-17T16:14:56.760Z,7.23
2019-02-17T16:17:07.600Z,6.40
2019-02-17T16:19:18.437Z,6.57
2019-02-17T16:21:29.250Z,8.40
2019-02-17T16:23:40.137Z,7.73
2019-02-17T16:25:50.941Z,9.03
2019-02-17T16:28:01.762Z,12.10
2019-02-17T16:30:32.461Z,12.27
2019-02-17T16:32:43.275Z,13.27
2019-02-17T16:34:54.142Z,12.27
2019-02-17T16:37:04.942Z,13.97
2019-02-17T16:39:15.818Z,12.03
2019-02-17T16:41:26.772Z,6.33
2019-02-17T16:43:37.600Z,8.83
2019-02-17T16:45:48.428Z,9.27
2019-02-17T16:47:59.229Z,6.90
2019-02-17T16:50:30.754Z,7.20
2019-02-17T16:52:41.539Z,7.90
2019-02-17T16:54:52.360Z,6.40
2019-02-17T16:57:03.322Z,7.23
2019-02-17T16:59:14.133Z,7.43
2019-02-17T17:01:24.971Z,8.23
2019-02-17T17:03:35.798Z,9.07
2019-02-17T17:05:46.664Z,8.13
2019-02-17T17:07:57.470Z,11.87
2019-02-17T17:10:49.970Z,11.13
2019-02-17T17:13:00.751Z,8.50
2019-02-17T17:15:53.231Z,8.13
2019-02-17T17:18:45.707Z,10.77
2019-02-17T17:20:56.581Z,7.13
2019-02-17T17:23:07.418Z,6.30
2019-02-17T17:25:18.235Z,5.67
2019-02-17T17:27:29.122Z,8.87
2019-02-17T17:29:39.942Z,9.00
2019-02-17T17:31:50.773Z,8.87
2019-02-17T17:34:01.586Z,8.60
2019-02-17T17:36:12.465Z,9.60
2019-02-17T17:38:23.285Z,7.93
2019-02-17T17:40:36.016Z,11.27
2019-02-17T17:42:46.866Z,9.70
2019-02-17T17:44:57.675Z,8.47
2019-02-17T17:47:08.509Z,10.67
2019-02-17T17:49:19.611Z,10.80
2019-02-17T17:51:32.135Z,12.07
2019-02-17T17:53:42.944Z,11.30
2019-02-17T17:55:53.755Z,10.23
2019-02-17T17:58:04.609Z,9.17
2019-02-17T18:00:57.085Z,8.47
2019-02-17T18:03:07.933Z,8.30
2019-02-17T18:05:18.890Z,10.60
2019-02-17T18:07:29.695Z,10.73
2019-02-17T18:09:40.573Z,16.97
2019-02-17T18:11:51.374Z,17.63
2019-02-17T18:14:02.433Z,15.80
2019-02-17T18:16:13.306Z,16.23
2019-02-17T18:18:24.818Z,13.53
2019-02-17T18:20:36.900Z,11.27
2019-02-17T18:22:47.927Z,12.33
2019-02-17T18:24:58.752Z,13.33
2019-02-17T18:27:09.607Z,10.67
2019-02-17T18:29:20.448Z,11.80
2019-02-17T18:31:31.290Z,10.30
2019-02-17T18:33:42.336Z,8.40
2019-02-17T18:35:53.179Z,9.23
2019-02-17T18:38:04.074Z,24.17
2019-02-17T18:40:56.553Z,11.53
2019-02-17T18:43:07.461Z,9.27
2019-02-17T18:45:18.385Z,10.00
2019-02-17T18:47:29.199Z,10.43
2019-02-17T18:49:40.069Z,12.00
2019-02-17T18:51:50.899Z,11.20
2019-02-17T18:54:01.778Z,14.17
2019-02-17T18:56:12.598Z,14.23
2019-02-17T18:58:23.430Z,13.90
2019-02-17T19:02:51.586Z,11.97
2019-02-17T19:07:41.345Z,7.23
2019-02-17T19:09:52.233Z,6.63
2019-02-17T19:12:03.172Z,6.30
2019-02-17T19:14:14.032Z,6.53
2019-02-17T19:16:24.968Z,6.43
2019-02-17T19:18:35.768Z,8.43
2019-02-17T19:20:46.615Z,7.70
2019-02-17T19:22:57.486Z,8.33
2019-02-17T19:25:49.944Z,7.87
2019-02-17T19:28:00.768Z,6.83
2019-02-17T19:30:53.246Z,7.50
2019-02-17T19:33:04.067Z,7.43
2019-02-17T19:35:15.121Z,7.93
2019-02-17T19:37:25.928Z,7.80
2019-02-17T19:39:36.754Z,12.40
2019-02-17T19:41:47.576Z,10.37
2019-02-17T19:43:58.378Z,11.70
2019-02-17T19:46:09.394Z,12.03
2019-02-17T19:48:20.194Z,8.97
2019-02-17T19:50:31.046Z,9.73
2019-02-17T19:52:41.857Z,9.00
2019-02-17T19:54:52.695Z,12.23
2019-02-17T19:57:03.553Z,8.57
2019-02-17T19:59:14.337Z,9.53
2019-02-17T20:01:25.186Z,9.87
2019-02-17T20:06:14.447Z,9.23
2019-02-17T20:08:25.256Z,9.57
2019-02-17T20:10:36.071Z,9.20
2019-02-17T20:12:47.205Z,9.63
2019-02-17T20:14:59.659Z,9.43
2019-02-17T20:17:10.503Z,12.03
2019-02-17T20:19:21.351Z,11.33
2019-02-17T20:21:32.158Z,13.17
2019-02-17T20:23:42.996Z,13.40
2019-02-17T20:25:53.897Z,11.07
2019-02-17T20:28:04.818Z,8.27
2019-02-17T20:30:15.672Z,8.80
2019-02-17T20:32:26.502Z,9.57
2019-02-17T20:34:37.312Z,8.93
2019-02-17T20:36:48.113Z,10.30
2019-02-17T20:38:58.967Z,11.50
2019-02-17T20:41:09.801Z,9.43
2019-02-17T20:43:20.691Z,11.30
2019-02-17T20:45:31.597Z,8.47
2019-02-17T20:47:42.470Z,10.70
2019-02-17T20:49:53.280Z,8.10
2019-02-17T20:52:04.100Z,8.07
2019-02-17T20:54:14.905Z,10.60
2019-02-17T20:56:25.760Z,9.57
2019-02-17T20:58:36.583Z,8.63
2019-02-17T21:00:47.414Z,8.03
2019-02-17T21:02:58.347Z,7.47
2019-02-17T21:05:09.242Z,8.40
2019-02-17T21:07:20.074Z,7.27
2019-02-17T21:09:30.890Z,6.67
2019-02-17T21:11:41.687Z,7.13
2019-02-17T21:13:52.526Z,9.67
2019-02-17T21:18:35.737Z,6.20
2019-02-17T21:20:46.554Z,7.63
2019-02-17T21:22:57.367Z,6.87
2019-02-17T21:25:28.099Z,7.17
2019-02-17T21:27:38.937Z,8.27
2019-02-17T21:29:49.786Z,8.00
2019-02-17T21:32:00.628Z,6.67
2019-02-17T21:34:11.457Z,8.17
2019-02-17T21:36:23.421Z,6.17
2019-02-17T21:38:34.997Z,7.60
2019-02-17T21:40:45.834Z,7.67
2019-02-17T21:42:56.638Z,9.73
2019-02-17T21:45:29.228Z,6.30
2019-02-17T21:47:40.146Z,7.60
2019-02-17T21:49:50.962Z,7.93
2019-02-17T21:52:01.762Z,8.80
2019-02-17T21:54:12.613Z,9.03
2019-02-17T21:56:23.419Z,9.63
2019-02-17T21:58:34.251Z,8.50
2019-02-17T22:00:45.065Z,7.53
2019-02-17T22:02:55.903Z,8.07
2019-02-17T22:05:06.801Z,9.27
2019-02-17T22:07:17.642Z,9.63
2019-02-17T22:09:28.440Z,8.40
2019-02-17T22:11:39.265Z,9.70
2019-02-17T22:13:50.041Z,9.80
2019-02-17T22:16:42.520Z,12.93
2019-02-17T22:18:53.336Z,10.47
2019-02-17T22:21:04.154Z,8.00
2019-02-17T22:23:14.941Z,10.03
2019-02-17T22:25:25.743Z,10.50
2019-02-17T22:27:36.573Z,9.43
2019-02-17T22:29:47.408Z,10.20
2019-02-17T22:31:58.239Z,8.67
2019-02-17T22:34:09.037Z,9.83
2019-02-17T22:36:19.879Z,9.43
2019-02-17T22:38:30.647Z,12.03
2019-02-17T22:40:41.459Z,11.97
2019-02-17T22:42:52.287Z,10.87
2019-02-17T22:45:44.759Z,8.90
2019-02-17T22:47:55.601Z,10.40
2019-02-17T22:50:26.272Z,8.73
2019-02-17T22:52:37.105Z,10.53
2019-02-17T22:54:47.899Z,9.07
2019-02-17T22:56:58.822Z,6.13
2019-02-17T22:59:09.636Z,10.67
2019-02-17T23:02:02.139Z,7.63
2019-02-17T23:04:12.912Z,7.10
2019-02-17T23:06:23.701Z,8.47
2019-02-17T23:08:34.527Z,7.60
2019-02-17T23:10:45.333Z,9.20
2019-02-17T23:12:56.250Z,10.60
2019-02-17T23:15:07.046Z,9.47
2019-02-17T23:17:17.869Z,8.33
2019-02-17T23:19:28.695Z,9.93
2019-02-17T23:21:39.649Z,8.40
2019-02-17T23:23:50.459Z,7.87
2019-02-17T23:26:01.249Z,9.63
2019-02-17T23:28:12.059Z,7.47
2019-02-17T23:30:22.882Z,6.77
2019-02-17T23:32:33.685Z,6.50
2019-02-17T23:34:44.510Z,7.70
2019-02-17T23:37:03.640Z,8.60
2019-02-17T23:39:08.188Z,7.23
2019-02-17T23:41:18.935Z,5.77
2019-02-17T23:43:29.731Z,6.43
2019-02-17T23:45:40.588Z,6.33
2019-02-17T23:47:51.382Z,8.03
2019-02-17T23:50:43.866Z,8.03
2019-02-17T23:52:54.847Z,7.70
2019-02-17T23:55:27.403Z,8.93
2019-02-17T23:57:38.319Z,8.53
2019-02-17T23:59:49.136Z,6.53
